sensor_id;sensor_type;location;lat;lon;timestamp;P1;durP1;ratioP1;P2;durP2;ratioP2
789;SDS011;378;48.844;9.156;2024-03-08T00:00:40;30.90;;;14.35;;
789;SDS011;378;48.844;9.156;2024-03-08T00:03:11;26.63;;;13.35;;
789;SDS011;378;48.844;9.156;2024-03-08T00:05:40;28.58;;;14.07;;
789;SDS011;378;48.844;9.156;2024-03-08T00:08:14;29.65;;;13.85;;
789;SDS011;378;48.844;9.156;2024-03-08T00:10:43;27.80;;;13.40;;
789;SDS011;378;48.844;9.156;2024-03-08T00:13:13;33.08;;;14.15;;
789;SDS011;378;48.844;9.156;2024-03-08T00:15:40;30.27;;;12.95;;
789;SDS011;378;48.844;9.156;2024-03-08T00:18:11;28.52;;;14.05;;
789;SDS011;378;48.844;9.156;2024-03-08T00:20:41;27.55;;;12.93;;
789;SDS011;378;48.844;9.156;2024-03-08T00:23:10;30.55;;;14.10;;
789;SDS011;378;48.844;9.156;2024-03-08T00:25:43;26.40;;;13.43;;
789;SDS011;378;48.844;9.156;2024-03-08T00:28:13;28.00;;;13.80;;
789;SDS011;378;48.844;9.156;2024-03-08T00:30:43;27.25;;;13.68;;
789;SDS011;378;48.844;9.156;2024-03-08T00:33:15;28.63;;;14.13;;
789;SDS011;378;48.844;9.156;2024-03-08T00:35:42;31.05;;;14.00;;
789;SDS011;378;48.844;9.156;2024-03-08T00:38:12;29.80;;;13.52;;
789;SDS011;378;48.844;9.156;2024-03-08T00:40:38;27.55;;;13.07;;
789;SDS011;378;48.844;9.156;2024-03-08T00:43:05;30.05;;;13.63;;
789;SDS011;378;48.844;9.156;2024-03-08T00:45:36;31.42;;;14.52;;
789;SDS011;378;48.844;9.156;2024-03-08T00:48:03;27.45;;;13.90;;
789;SDS011;378;48.844;9.156;2024-03-08T00:50:37;32.38;;;14.02;;
789;SDS011;378;48.844;9.156;2024-03-08T00:53:10;29.50;;;13.73;;
789;SDS011;378;48.844;9.156;2024-03-08T00:55:37;27.10;;;13.30;;
789;SDS011;378;48.844;9.156;2024-03-08T00:58:07;30.15;;;13.18;;
789;SDS011;378;48.844;9.156;2024-03-08T01:00:34;28.42;;;13.75;;
789;SDS011;378;48.844;9.156;2024-03-08T01:03:04;28.92;;;13.57;;
789;SDS011;378;48.844;9.156;2024-03-08T01:05:34;31.92;;;13.85;;
789;SDS011;378;48.844;9.156;2024-03-08T01:08:05;29.05;;;14.05;;
789;SDS011;378;48.844;9.156;2024-03-08T01:10:36;26.60;;;13.43;;
789;SDS011;378;48.844;9.156;2024-03-08T01:13:06;26.75;;;13.15;;
789;SDS011;378;48.844;9.156;2024-03-08T01:15:35;27.00;;;13.52;;
789;SDS011;378;48.844;9.156;2024-03-08T01:18:06;29.80;;;13.98;;
789;SDS011;378;48.844;9.156;2024-03-08T01:20:36;28.88;;;13.20;;
789;SDS011;378;48.844;9.156;2024-03-08T01:23:06;28.02;;;13.73;;
789;SDS011;378;48.844;9.156;2024-03-08T01:25:35;27.80;;;13.15;;
789;SDS011;378;48.844;9.156;2024-03-08T01:28:04;28.52;;;13.57;;
789;SDS011;378;48.844;9.156;2024-03-08T01:30:34;26.73;;;13.80;;
789;SDS011;378;48.844;9.156;2024-03-08T01:33:07;28.90;;;13.32;;
789;SDS011;378;48.844;9.156;2024-03-08T01:35:40;27.63;;;13.68;;
789;SDS011;378;48.844;9.156;2024-03-08T01:38:13;28.90;;;13.18;;
789;SDS011;378;48.844;9.156;2024-03-08T01:40:42;29.60;;;12.85;;
789;SDS011;378;48.844;9.156;2024-03-08T01:43:17;26.40;;;12.50;;
789;SDS011;378;48.844;9.156;2024-03-08T01:45:49;26.67;;;12.75;;
789;SDS011;378;48.844;9.156;2024-03-08T01:48:22;29.83;;;14.45;;
789;SDS011;378;48.844;9.156;2024-03-08T01:50:53;27.20;;;13.07;;
789;SDS011;378;48.844;9.156;2024-03-08T01:53:25;25.73;;;12.98;;
789;SDS011;378;48.844;9.156;2024-03-08T01:55:57;29.63;;;13.43;;
789;SDS011;378;48.844;9.156;2024-03-08T01:58:30;27.05;;;13.20;;
789;SDS011;378;48.844;9.156;2024-03-08T02:01:08;29.92;;;13.00;;
789;SDS011;378;48.844;9.156;2024-03-08T02:03:39;30.48;;;14.10;;
789;SDS011;378;48.844;9.156;2024-03-08T02:06:10;23.70;;;12.27;;
789;SDS011;378;48.844;9.156;2024-03-08T02:08:41;27.75;;;12.65;;
789;SDS011;378;48.844;9.156;2024-03-08T02:11:12;27.48;;;13.90;;
789;SDS011;378;48.844;9.156;2024-03-08T02:13:41;24.50;;;12.38;;
789;SDS011;378;48.844;9.156;2024-03-08T02:16:11;25.88;;;12.32;;
789;SDS011;378;48.844;9.156;2024-03-08T02:18:41;24.15;;;12.07;;
789;SDS011;378;48.844;9.156;2024-03-08T02:21:11;28.65;;;12.65;;
789;SDS011;378;48.844;9.156;2024-03-08T02:23:39;25.83;;;12.43;;
789;SDS011;378;48.844;9.156;2024-03-08T02:26:10;29.02;;;13.25;;
789;SDS011;378;48.844;9.156;2024-03-08T02:28:42;29.83;;;13.88;;
789;SDS011;378;48.844;9.156;2024-03-08T02:31:14;25.63;;;12.27;;
789;SDS011;378;48.844;9.156;2024-03-08T02:33:47;27.42;;;12.43;;
789;SDS011;378;48.844;9.156;2024-03-08T02:36:22;27.33;;;12.70;;
789;SDS011;378;48.844;9.156;2024-03-08T02:38:55;25.58;;;12.60;;
789;SDS011;378;48.844;9.156;2024-03-08T02:41:23;27.13;;;12.05;;
789;SDS011;378;48.844;9.156;2024-03-08T02:43:53;27.80;;;13.52;;
789;SDS011;378;48.844;9.156;2024-03-08T02:46:23;26.63;;;12.45;;
789;SDS011;378;48.844;9.156;2024-03-08T02:48:52;27.38;;;12.55;;
789;SDS011;378;48.844;9.156;2024-03-08T02:51:19;25.90;;;12.43;;
789;SDS011;378;48.844;9.156;2024-03-08T02:53:53;27.95;;;11.98;;
789;SDS011;378;48.844;9.156;2024-03-08T02:56:20;24.25;;;12.07;;
789;SDS011;378;48.844;9.156;2024-03-08T02:58:49;26.45;;;12.25;;
789;SDS011;378;48.844;9.156;2024-03-08T03:01:16;25.60;;;11.88;;
789;SDS011;378;48.844;9.156;2024-03-08T03:03:47;25.25;;;12.30;;
789;SDS011;378;48.844;9.156;2024-03-08T03:06:17;24.17;;;12.18;;
789;SDS011;378;48.844;9.156;2024-03-08T03:08:46;23.55;;;11.60;;
789;SDS011;378;48.844;9.156;2024-03-08T03:11:17;25.40;;;10.90;;
789;SDS011;378;48.844;9.156;2024-03-08T03:13:52;25.55;;;11.57;;
789;SDS011;378;48.844;9.156;2024-03-08T03:16:20;24.02;;;11.23;;
789;SDS011;378;48.844;9.156;2024-03-08T03:18:47;25.08;;;12.00;;
789;SDS011;378;48.844;9.156;2024-03-08T03:21:16;26.25;;;12.00;;
789;SDS011;378;48.844;9.156;2024-03-08T03:23:43;24.33;;;12.32;;
789;SDS011;378;48.844;9.156;2024-03-08T03:26:17;26.80;;;11.75;;
789;SDS011;378;48.844;9.156;2024-03-08T03:28:50;22.95;;;11.80;;
789;SDS011;378;48.844;9.156;2024-03-08T03:31:20;25.10;;;10.93;;
789;SDS011;378;48.844;9.156;2024-03-08T03:33:49;24.08;;;11.48;;
789;SDS011;378;48.844;9.156;2024-03-08T03:36:16;23.00;;;11.45;;
789;SDS011;378;48.844;9.156;2024-03-08T03:38:46;25.98;;;11.52;;
789;SDS011;378;48.844;9.156;2024-03-08T03:41:17;26.20;;;11.57;;
789;SDS011;378;48.844;9.156;2024-03-08T03:43:47;22.20;;;11.38;;
789;SDS011;378;48.844;9.156;2024-03-08T03:46:14;24.48;;;12.07;;
789;SDS011;378;48.844;9.156;2024-03-08T03:48:44;21.92;;;10.90;;
789;SDS011;378;48.844;9.156;2024-03-08T03:51:13;24.20;;;10.70;;
789;SDS011;378;48.844;9.156;2024-03-08T03:53:45;28.27;;;11.90;;
789;SDS011;378;48.844;9.156;2024-03-08T03:56:14;24.23;;;11.55;;
789;SDS011;378;48.844;9.156;2024-03-08T03:58:42;27.42;;;12.20;;
789;SDS011;378;48.844;9.156;2024-03-08T04:01:12;24.25;;;11.82;;
789;SDS011;378;48.844;9.156;2024-03-08T04:03:41;28.90;;;11.88;;
789;SDS011;378;48.844;9.156;2024-03-08T04:06:09;21.52;;;10.48;;
789;SDS011;378;48.844;9.156;2024-03-08T04:08:42;23.23;;;11.15;;
789;SDS011;378;48.844;9.156;2024-03-08T04:11:11;21.63;;;10.48;;
789;SDS011;378;48.844;9.156;2024-03-08T04:13:43;23.60;;;11.88;;
789;SDS011;378;48.844;9.156;2024-03-08T04:16:10;24.63;;;11.60;;
789;SDS011;378;48.844;9.156;2024-03-08T04:18:37;24.02;;;11.32;;
789;SDS011;378;48.844;9.156;2024-03-08T04:21:04;24.30;;;10.88;;
789;SDS011;378;48.844;9.156;2024-03-08T04:23:33;24.13;;;11.70;;
789;SDS011;378;48.844;9.156;2024-03-08T04:26:02;22.63;;;10.80;;
789;SDS011;378;48.844;9.156;2024-03-08T04:28:36;25.23;;;11.40;;
789;SDS011;378;48.844;9.156;2024-03-08T04:31:12;22.75;;;11.27;;
789;SDS011;378;48.844;9.156;2024-03-08T04:33:40;22.13;;;10.93;;
789;SDS011;378;48.844;9.156;2024-03-08T04:36:07;25.05;;;11.73;;
789;SDS011;378;48.844;9.156;2024-03-08T04:38:38;22.42;;;11.40;;
789;SDS011;378;48.844;9.156;2024-03-08T04:41:11;21.73;;;10.82;;
789;SDS011;378;48.844;9.156;2024-03-08T04:43:46;28.35;;;12.25;;
789;SDS011;378;48.844;9.156;2024-03-08T04:46:15;21.10;;;11.23;;
789;SDS011;378;48.844;9.156;2024-03-08T04:48:47;23.23;;;11.60;;
789;SDS011;378;48.844;9.156;2024-03-08T04:51:19;26.33;;;12.25;;
789;SDS011;378;48.844;9.156;2024-03-08T04:53:46;28.42;;;11.73;;
789;SDS011;378;48.844;9.156;2024-03-08T04:56:33;25.10;;;11.68;;
789;SDS011;378;48.844;9.156;2024-03-08T04:59:33;27.30;;;12.23;;
789;SDS011;378;48.844;9.156;2024-03-08T05:02:23;23.45;;;11.57;;
789;SDS011;378;48.844;9.156;2024-03-08T05:05:09;23.52;;;12.07;;
789;SDS011;378;48.844;9.156;2024-03-08T05:08:01;24.65;;;12.02;;
789;SDS011;378;48.844;9.156;2024-03-08T05:10:46;26.90;;;11.85;;
789;SDS011;378;48.844;9.156;2024-03-08T05:13:46;27.00;;;12.40;;
789;SDS011;378;48.844;9.156;2024-03-08T05:20:05;28.77;;;13.50;;
789;SDS011;378;48.844;9.156;2024-03-08T05:23:00;28.25;;;12.70;;
789;SDS011;378;48.844;9.156;2024-03-08T05:25:40;28.27;;;12.52;;
789;SDS011;378;48.844;9.156;2024-03-08T05:28:35;25.75;;;12.23;;
789;SDS011;378;48.844;9.156;2024-03-08T05:31:21;23.98;;;11.77;;
789;SDS011;378;48.844;9.156;2024-03-08T05:40:20;28.13;;;12.88;;
789;SDS011;378;48.844;9.156;2024-03-08T05:43:20;33.30;;;13.27;;
789;SDS011;378;48.844;9.156;2024-03-08T05:46:16;27.77;;;12.00;;
789;SDS011;378;48.844;9.156;2024-03-08T05:52:06;25.83;;;12.52;;
789;SDS011;378;48.844;9.156;2024-03-08T05:58:14;25.05;;;13.18;;
789;SDS011;378;48.844;9.156;2024-03-08T06:01:03;25.85;;;12.43;;
789;SDS011;378;48.844;9.156;2024-03-08T06:04:01;26.20;;;13.05;;
789;SDS011;378;48.844;9.156;2024-03-08T06:06:52;28.17;;;12.50;;
789;SDS011;378;48.844;9.156;2024-03-08T06:09:46;25.55;;;12.02;;
789;SDS011;378;48.844;9.156;2024-03-08T06:12:59;28.80;;;13.18;;
789;SDS011;378;48.844;9.156;2024-03-08T06:15:56;25.75;;;12.57;;
789;SDS011;378;48.844;9.156;2024-03-08T06:18:48;27.85;;;12.75;;
789;SDS011;378;48.844;9.156;2024-03-08T06:22:22;28.65;;;13.45;;
789;SDS011;378;48.844;9.156;2024-03-08T06:25:18;27.10;;;12.40;;
789;SDS011;378;48.844;9.156;2024-03-08T06:28:21;27.75;;;13.35;;
789;SDS011;378;48.844;9.156;2024-03-08T06:31:25;32.00;;;13.75;;
789;SDS011;378;48.844;9.156;2024-03-08T06:34:03;26.15;;;13.10;;
789;SDS011;378;48.844;9.156;2024-03-08T06:37:03;29.58;;;13.68;;
789;SDS011;378;48.844;9.156;2024-03-08T06:40:24;30.27;;;13.73;;
789;SDS011;378;48.844;9.156;2024-03-08T06:46:35;26.95;;;13.70;;
789;SDS011;378;48.844;9.156;2024-03-08T06:49:28;28.77;;;14.38;;
789;SDS011;378;48.844;9.156;2024-03-08T06:52:35;27.30;;;13.48;;
789;SDS011;378;48.844;9.156;2024-03-08T06:55:24;33.08;;;13.80;;
789;SDS011;378;48.844;9.156;2024-03-08T06:58:25;27.88;;;13.02;;
789;SDS011;378;48.844;9.156;2024-03-08T07:01:03;27.65;;;13.73;;
789;SDS011;378;48.844;9.156;2024-03-08T07:03:35;28.92;;;13.68;;
789;SDS011;378;48.844;9.156;2024-03-08T07:06:11;25.95;;;12.43;;
789;SDS011;378;48.844;9.156;2024-03-08T07:08:51;32.25;;;14.50;;
789;SDS011;378;48.844;9.156;2024-03-08T07:11:24;25.48;;;13.32;;
789;SDS011;378;48.844;9.156;2024-03-08T07:13:54;31.50;;;13.52;;
789;SDS011;378;48.844;9.156;2024-03-08T07:16:26;32.28;;;14.75;;
789;SDS011;378;48.844;9.156;2024-03-08T07:19:01;28.63;;;13.40;;
789;SDS011;378;48.844;9.156;2024-03-08T07:21:28;28.75;;;13.32;;
789;SDS011;378;48.844;9.156;2024-03-08T07:23:58;24.67;;;12.43;;
789;SDS011;378;48.844;9.156;2024-03-08T07:26:49;27.45;;;13.43;;
789;SDS011;378;48.844;9.156;2024-03-08T07:29:20;29.58;;;13.32;;
789;SDS011;378;48.844;9.156;2024-03-08T07:31:52;28.95;;;13.30;;
789;SDS011;378;48.844;9.156;2024-03-08T07:34:38;27.85;;;13.73;;
789;SDS011;378;48.844;9.156;2024-03-08T07:37:14;26.33;;;13.18;;
789;SDS011;378;48.844;9.156;2024-03-08T07:39:43;27.40;;;13.07;;
789;SDS011;378;48.844;9.156;2024-03-08T07:42:14;27.00;;;13.32;;
789;SDS011;378;48.844;9.156;2024-03-08T07:44:44;28.65;;;12.57;;
789;SDS011;378;48.844;9.156;2024-03-08T07:47:21;26.52;;;13.55;;
789;SDS011;378;48.844;9.156;2024-03-08T07:49:55;25.08;;;13.15;;
789;SDS011;378;48.844;9.156;2024-03-08T07:52:45;29.10;;;13.80;;
789;SDS011;378;48.844;9.156;2024-03-08T07:55:17;26.55;;;13.35;;
789;SDS011;378;48.844;9.156;2024-03-08T08:01:15;26.00;;;12.88;;
789;SDS011;378;48.844;9.156;2024-03-08T08:04:27;27.17;;;12.90;;
789;SDS011;378;48.844;9.156;2024-03-08T08:07:27;28.58;;;13.23;;
789;SDS011;378;48.844;9.156;2024-03-08T08:11:02;29.17;;;13.52;;
789;SDS011;378;48.844;9.156;2024-03-08T08:16:43;29.08;;;13.57;;
789;SDS011;378;48.844;9.156;2024-03-08T08:19:43;25.63;;;12.98;;
789;SDS011;378;48.844;9.156;2024-03-08T08:22:36;28.08;;;13.70;;
789;SDS011;378;48.844;9.156;2024-03-08T08:25:19;27.35;;;13.63;;
789;SDS011;378;48.844;9.156;2024-03-08T08:28:19;27.88;;;12.93;;
789;SDS011;378;48.844;9.156;2024-03-08T08:31:08;27.73;;;13.35;;
789;SDS011;378;48.844;9.156;2024-03-08T08:33:47;27.60;;;12.35;;
789;SDS011;378;48.844;9.156;2024-03-08T08:36:35;27.35;;;13.40;;
789;SDS011;378;48.844;9.156;2024-03-08T08:39:18;26.35;;;12.80;;
789;SDS011;378;48.844;9.156;2024-03-08T08:41:58;30.52;;;14.75;;
789;SDS011;378;48.844;9.156;2024-03-08T08:47:58;24.02;;;12.48;;
789;SDS011;378;48.844;9.156;2024-03-08T08:51:02;25.83;;;12.90;;
789;SDS011;378;48.844;9.156;2024-03-08T08:53:58;27.23;;;13.40;;
789;SDS011;378;48.844;9.156;2024-03-08T09:00:02;26.08;;;12.75;;
789;SDS011;378;48.844;9.156;2024-03-08T09:03:07;26.33;;;12.40;;
789;SDS011;378;48.844;9.156;2024-03-08T09:05:52;27.70;;;13.25;;
789;SDS011;378;48.844;9.156;2024-03-08T09:08:46;25.05;;;11.63;;
789;SDS011;378;48.844;9.156;2024-03-08T09:11:41;29.13;;;12.57;;
789;SDS011;378;48.844;9.156;2024-03-08T09:17:55;27.70;;;12.32;;
789;SDS011;378;48.844;9.156;2024-03-08T09:20:57;25.30;;;11.98;;
789;SDS011;378;48.844;9.156;2024-03-08T09:27:04;25.23;;;12.00;;
789;SDS011;378;48.844;9.156;2024-03-08T09:29:58;27.40;;;12.60;;
789;SDS011;378;48.844;9.156;2024-03-08T09:32:38;24.65;;;12.07;;
789;SDS011;378;48.844;9.156;2024-03-08T09:35:05;26.92;;;12.38;;
789;SDS011;378;48.844;9.156;2024-03-08T09:37:32;26.40;;;12.57;;
789;SDS011;378;48.844;9.156;2024-03-08T09:40:00;25.30;;;12.70;;
789;SDS011;378;48.844;9.156;2024-03-08T09:42:31;25.40;;;12.48;;
789;SDS011;378;48.844;9.156;2024-03-08T09:44:57;25.75;;;13.32;;
789;SDS011;378;48.844;9.156;2024-03-08T09:47:24;23.83;;;11.18;;
789;SDS011;378;48.844;9.156;2024-03-08T09:49:54;28.10;;;13.20;;
789;SDS011;378;48.844;9.156;2024-03-08T09:52:21;25.42;;;12.52;;
789;SDS011;378;48.844;9.156;2024-03-08T09:54:47;24.58;;;12.27;;
789;SDS011;378;48.844;9.156;2024-03-08T09:57:14;23.98;;;11.48;;
789;SDS011;378;48.844;9.156;2024-03-08T09:59:43;26.53;;;13.43;;
789;SDS011;378;48.844;9.156;2024-03-08T10:02:13;26.27;;;12.50;;
789;SDS011;378;48.844;9.156;2024-03-08T10:04:41;26.05;;;12.30;;
789;SDS011;378;48.844;9.156;2024-03-08T10:07:11;27.33;;;13.27;;
789;SDS011;378;48.844;9.156;2024-03-08T10:09:38;26.30;;;12.57;;
789;SDS011;378;48.844;9.156;2024-03-08T10:12:06;27.13;;;11.95;;
789;SDS011;378;48.844;9.156;2024-03-08T10:14:34;31.73;;;13.07;;
789;SDS011;378;48.844;9.156;2024-03-08T10:17:07;27.23;;;12.57;;
789;SDS011;378;48.844;9.156;2024-03-08T10:19:34;22.67;;;11.95;;
789;SDS011;378;48.844;9.156;2024-03-08T10:22:01;27.00;;;12.63;;
789;SDS011;378;48.844;9.156;2024-03-08T10:24:29;25.17;;;11.45;;
789;SDS011;378;48.844;9.156;2024-03-08T10:27:02;29.40;;;12.75;;
789;SDS011;378;48.844;9.156;2024-03-08T10:29:30;26.27;;;12.43;;
789;SDS011;378;48.844;9.156;2024-03-08T10:31:57;23.42;;;11.25;;
789;SDS011;378;48.844;9.156;2024-03-08T10:34:25;28.45;;;12.27;;
789;SDS011;378;48.844;9.156;2024-03-08T10:36:54;27.25;;;12.30;;
789;SDS011;378;48.844;9.156;2024-03-08T10:39:29;28.77;;;12.98;;
789;SDS011;378;48.844;9.156;2024-03-08T10:42:02;28.58;;;13.23;;
789;SDS011;378;48.844;9.156;2024-03-08T10:44:36;25.63;;;12.32;;
789;SDS011;378;48.844;9.156;2024-03-08T10:47:29;24.05;;;11.40;;
789;SDS011;378;48.844;9.156;2024-03-08T10:50:05;26.13;;;12.85;;
789;SDS011;378;48.844;9.156;2024-03-08T10:52:38;23.65;;;11.93;;
789;SDS011;378;48.844;9.156;2024-03-08T10:55:05;27.40;;;12.23;;
789;SDS011;378;48.844;9.156;2024-03-08T10:57:37;23.23;;;11.68;;
789;SDS011;378;48.844;9.156;2024-03-08T11:00:05;28.20;;;12.30;;
789;SDS011;378;48.844;9.156;2024-03-08T11:02:35;26.83;;;12.55;;
789;SDS011;378;48.844;9.156;2024-03-08T11:05:04;25.27;;;12.40;;
789;SDS011;378;48.844;9.156;2024-03-08T11:07:40;25.92;;;11.88;;
789;SDS011;378;48.844;9.156;2024-03-08T11:10:18;27.80;;;12.57;;
789;SDS011;378;48.844;9.156;2024-03-08T11:12:46;23.30;;;12.05;;
789;SDS011;378;48.844;9.156;2024-03-08T11:15:13;27.85;;;12.40;;
789;SDS011;378;48.844;9.156;2024-03-08T11:17:47;25.63;;;12.60;;
789;SDS011;378;48.844;9.156;2024-03-08T11:20:23;24.17;;;11.68;;
789;SDS011;378;48.844;9.156;2024-03-08T11:22:52;26.67;;;12.43;;
789;SDS011;378;48.844;9.156;2024-03-08T11:25:31;28.00;;;12.45;;
789;SDS011;378;48.844;9.156;2024-03-08T11:28:15;26.00;;;12.40;;
789;SDS011;378;48.844;9.156;2024-03-08T11:34:07;24.85;;;11.52;;
789;SDS011;378;48.844;9.156;2024-03-08T11:36:55;28.25;;;12.20;;
789;SDS011;378;48.844;9.156;2024-03-08T11:39:46;29.38;;;12.20;;
789;SDS011;378;48.844;9.156;2024-03-08T11:42:17;26.10;;;12.27;;
789;SDS011;378;48.844;9.156;2024-03-08T11:44:50;28.17;;;13.07;;
789;SDS011;378;48.844;9.156;2024-03-08T11:47:22;27.02;;;12.23;;
789;SDS011;378;48.844;9.156;2024-03-08T11:50:09;24.73;;;12.52;;
789;SDS011;378;48.844;9.156;2024-03-08T11:52:50;27.50;;;13.13;;
789;SDS011;378;48.844;9.156;2024-03-08T11:55:27;28.52;;;12.30;;
789;SDS011;378;48.844;9.156;2024-03-08T11:58:06;27.90;;;13.27;;
789;SDS011;378;48.844;9.156;2024-03-08T12:00:54;28.85;;;12.88;;
789;SDS011;378;48.844;9.156;2024-03-08T12:04:15;26.02;;;11.95;;
789;SDS011;378;48.844;9.156;2024-03-08T12:06:51;26.80;;;13.20;;
789;SDS011;378;48.844;9.156;2024-03-08T12:09:36;27.00;;;12.40;;
789;SDS011;378;48.844;9.156;2024-03-08T12:12:13;25.35;;;12.00;;
789;SDS011;378;48.844;9.156;2024-03-08T12:14:53;29.05;;;13.57;;
789;SDS011;378;48.844;9.156;2024-03-08T12:17:25;26.33;;;13.35;;
789;SDS011;378;48.844;9.156;2024-03-08T12:20:18;31.65;;;15.30;;
789;SDS011;378;48.844;9.156;2024-03-08T12:23:01;28.35;;;13.48;;
789;SDS011;378;48.844;9.156;2024-03-08T12:25:51;27.48;;;13.23;;
789;SDS011;378;48.844;9.156;2024-03-08T12:28:51;28.70;;;13.88;;
789;SDS011;378;48.844;9.156;2024-03-08T12:31:22;25.83;;;12.60;;
789;SDS011;378;48.844;9.156;2024-03-08T12:34:06;26.63;;;13.05;;
789;SDS011;378;48.844;9.156;2024-03-08T12:36:55;28.05;;;13.15;;
789;SDS011;378;48.844;9.156;2024-03-08T12:39:32;30.90;;;13.77;;
789;SDS011;378;48.844;9.156;2024-03-08T12:42:22;33.28;;;13.73;;
789;SDS011;378;48.844;9.156;2024-03-08T12:44:49;29.83;;;13.10;;
789;SDS011;378;48.844;9.156;2024-03-08T12:47:33;27.00;;;12.00;;
789;SDS011;378;48.844;9.156;2024-03-08T12:50:07;29.38;;;13.55;;
789;SDS011;378;48.844;9.156;2024-03-08T12:52:46;30.60;;;14.13;;
789;SDS011;378;48.844;9.156;2024-03-08T12:58:29;29.73;;;13.52;;
789;SDS011;378;48.844;9.156;2024-03-08T13:01:46;32.72;;;14.10;;
789;SDS011;378;48.844;9.156;2024-03-08T13:07:26;27.48;;;13.30;;
789;SDS011;378;48.844;9.156;2024-03-08T13:09:53;28.30;;;13.20;;
789;SDS011;378;48.844;9.156;2024-03-08T13:12:20;32.53;;;14.10;;
789;SDS011;378;48.844;9.156;2024-03-08T13:14:52;29.58;;;13.48;;
789;SDS011;378;48.844;9.156;2024-03-08T13:17:21;27.70;;;13.13;;
789;SDS011;378;48.844;9.156;2024-03-08T13:19:48;29.35;;;13.43;;
789;SDS011;378;48.844;9.156;2024-03-08T13:22:15;28.15;;;12.90;;
789;SDS011;378;48.844;9.156;2024-03-08T13:24:48;26.42;;;12.38;;
789;SDS011;378;48.844;9.156;2024-03-08T13:27:15;33.00;;;12.32;;
789;SDS011;378;48.844;9.156;2024-03-08T13:29:45;30.45;;;12.60;;
789;SDS011;378;48.844;9.156;2024-03-08T13:32:18;31.13;;;13.75;;
789;SDS011;378;48.844;9.156;2024-03-08T13:34:50;28.77;;;12.32;;
789;SDS011;378;48.844;9.156;2024-03-08T13:37:17;27.83;;;13.25;;
789;SDS011;378;48.844;9.156;2024-03-08T13:39:44;28.27;;;12.75;;
789;SDS011;378;48.844;9.156;2024-03-08T13:42:11;32.45;;;13.40;;
789;SDS011;378;48.844;9.156;2024-03-08T13:44:43;29.13;;;13.30;;
789;SDS011;378;48.844;9.156;2024-03-08T13:47:10;44.47;;;14.00;;
789;SDS011;378;48.844;9.156;2024-03-08T13:49:39;29.30;;;13.73;;
789;SDS011;378;48.844;9.156;2024-03-08T13:52:08;43.05;;;13.88;;
789;SDS011;378;48.844;9.156;2024-03-08T13:54:35;28.77;;;13.43;;
789;SDS011;378;48.844;9.156;2024-03-08T13:57:04;29.70;;;13.35;;
789;SDS011;378;48.844;9.156;2024-03-08T13:59:32;27.95;;;12.75;;
789;SDS011;378;48.844;9.156;2024-03-08T14:02:00;31.35;;;13.20;;
789;SDS011;378;48.844;9.156;2024-03-08T14:04:27;33.08;;;13.95;;
789;SDS011;378;48.844;9.156;2024-03-08T14:06:55;35.80;;;12.95;;
789;SDS011;378;48.844;9.156;2024-03-08T14:09:28;32.10;;;13.68;;
789;SDS011;378;48.844;9.156;2024-03-08T14:11:57;31.45;;;12.93;;
789;SDS011;378;48.844;9.156;2024-03-08T14:14:36;27.58;;;12.20;;
789;SDS011;378;48.844;9.156;2024-03-08T14:17:08;23.45;;;12.50;;
789;SDS011;378;48.844;9.156;2024-03-08T14:19:42;28.40;;;12.77;;
789;SDS011;378;48.844;9.156;2024-03-08T14:22:24;28.48;;;12.68;;
789;SDS011;378;48.844;9.156;2024-03-08T14:25:07;29.90;;;12.95;;
789;SDS011;378;48.844;9.156;2024-03-08T14:27:42;26.48;;;13.43;;
789;SDS011;378;48.844;9.156;2024-03-08T14:30:18;24.30;;;12.60;;
789;SDS011;378;48.844;9.156;2024-03-08T14:33:12;26.30;;;12.13;;
789;SDS011;378;48.844;9.156;2024-03-08T14:35:59;26.63;;;12.93;;
789;SDS011;378;48.844;9.156;2024-03-08T14:38:51;27.98;;;12.98;;
789;SDS011;378;48.844;9.156;2024-03-08T14:41:34;25.65;;;12.90;;
789;SDS011;378;48.844;9.156;2024-03-08T14:44:25;22.42;;;11.00;;
789;SDS011;378;48.844;9.156;2024-03-08T14:47:19;24.50;;;11.82;;
789;SDS011;378;48.844;9.156;2024-03-08T14:50:09;28.40;;;12.77;;
789;SDS011;378;48.844;9.156;2024-03-08T14:53:06;25.55;;;12.23;;
789;SDS011;378;48.844;9.156;2024-03-08T14:55:48;27.38;;;12.00;;
789;SDS011;378;48.844;9.156;2024-03-08T14:58:21;25.92;;;12.27;;
789;SDS011;378;48.844;9.156;2024-03-08T15:00:55;27.17;;;13.73;;
789;SDS011;378;48.844;9.156;2024-03-08T15:03:41;28.08;;;12.05;;
789;SDS011;378;48.844;9.156;2024-03-08T15:06:13;26.95;;;12.70;;
789;SDS011;378;48.844;9.156;2024-03-08T15:08:56;24.25;;;12.15;;
789;SDS011;378;48.844;9.156;2024-03-08T15:11:28;30.67;;;12.02;;
789;SDS011;378;48.844;9.156;2024-03-08T15:14:15;26.08;;;12.43;;
789;SDS011;378;48.844;9.156;2024-03-08T15:17:06;23.17;;;12.02;;
789;SDS011;378;48.844;9.156;2024-03-08T15:19:58;26.10;;;12.00;;
789;SDS011;378;48.844;9.156;2024-03-08T15:22:46;27.00;;;12.38;;
789;SDS011;378;48.844;9.156;2024-03-08T15:25:46;22.25;;;11.88;;
789;SDS011;378;48.844;9.156;2024-03-08T15:28:23;24.42;;;12.23;;
789;SDS011;378;48.844;9.156;2024-03-08T15:31:01;24.90;;;12.32;;
789;SDS011;378;48.844;9.156;2024-03-08T15:33:54;24.08;;;12.43;;
789;SDS011;378;48.844;9.156;2024-03-08T15:36:53;23.58;;;11.88;;
789;SDS011;378;48.844;9.156;2024-03-08T15:39:32;27.65;;;12.75;;
789;SDS011;378;48.844;9.156;2024-03-08T15:42:38;27.67;;;12.43;;
789;SDS011;378;48.844;9.156;2024-03-08T15:48:17;25.80;;;11.90;;
789;SDS011;378;48.844;9.156;2024-03-08T15:54:07;22.00;;;11.75;;
789;SDS011;378;48.844;9.156;2024-03-08T15:56:59;26.60;;;11.55;;
789;SDS011;378;48.844;9.156;2024-03-08T15:59:47;32.28;;;12.55;;
789;SDS011;378;48.844;9.156;2024-03-08T16:12:57;25.60;;;12.00;;
789;SDS011;378;48.844;9.156;2024-03-08T16:18:43;26.52;;;12.80;;
789;SDS011;378;48.844;9.156;2024-03-08T16:25:29;24.52;;;11.90;;
789;SDS011;378;48.844;9.156;2024-03-08T16:29:04;26.77;;;12.05;;
789;SDS011;378;48.844;9.156;2024-03-08T16:31:24;24.35;;;11.90;;
789;SDS011;378;48.844;9.156;2024-03-08T16:37:36;24.17;;;11.93;;
789;SDS011;378;48.844;9.156;2024-03-08T16:40:25;21.42;;;10.57;;
789;SDS011;378;48.844;9.156;2024-03-08T16:43:06;24.65;;;11.45;;
789;SDS011;378;48.844;9.156;2024-03-08T16:46:25;23.25;;;11.35;;
789;SDS011;378;48.844;9.156;2024-03-08T16:48:59;23.83;;;12.13;;
789;SDS011;378;48.844;9.156;2024-03-08T16:51:31;23.63;;;10.90;;
789;SDS011;378;48.844;9.156;2024-03-08T16:54:06;24.40;;;11.48;;
789;SDS011;378;48.844;9.156;2024-03-08T16:56:33;24.38;;;11.75;;
789;SDS011;378;48.844;9.156;2024-03-08T16:59:05;23.55;;;10.80;;
789;SDS011;378;48.844;9.156;2024-03-08T17:01:35;22.23;;;10.52;;
789;SDS011;378;48.844;9.156;2024-03-08T17:04:03;23.60;;;11.10;;
789;SDS011;378;48.844;9.156;2024-03-08T17:06:33;17.08;;;9.85;;
789;SDS011;378;48.844;9.156;2024-03-08T17:09:00;23.67;;;10.95;;
789;SDS011;378;48.844;9.156;2024-03-08T17:11:52;22.40;;;10.35;;
789;SDS011;378;48.844;9.156;2024-03-08T17:14:45;21.33;;;10.45;;
789;SDS011;378;48.844;9.156;2024-03-08T17:17:37;22.23;;;10.85;;
789;SDS011;378;48.844;9.156;2024-03-08T17:20:21;23.60;;;11.43;;
789;SDS011;378;48.844;9.156;2024-03-08T17:26:15;22.27;;;10.65;;
789;SDS011;378;48.844;9.156;2024-03-08T17:29:15;23.83;;;11.35;;
789;SDS011;378;48.844;9.156;2024-03-08T17:31:58;20.67;;;9.45;;
789;SDS011;378;48.844;9.156;2024-03-08T17:40:16;21.88;;;10.40;;
789;SDS011;378;48.844;9.156;2024-03-08T17:44:16;26.02;;;12.18;;
789;SDS011;378;48.844;9.156;2024-03-08T17:47:05;23.27;;;10.65;;